createdAt,value
2019-03-08T00:02:13.203Z,8.00
2019-03-08T00:04:43.242Z,7.90
2019-03-08T00:07:12.904Z,7.90
2019-03-08T00:09:43.158Z,7.80
2019-03-08T00:12:13.722Z,7.70
2019-03-08T00:14:44.051Z,7.60
2019-03-08T00:17:14.302Z,7.40
2019-03-08T00:19:44.107Z,7.10
2019-03-08T00:22:14.406Z,7.00
2019-03-08T00:24:45.022Z,7.00
2019-03-08T00:27:15.604Z,6.90
2019-03-08T00:29:46.239Z,6.80
2019-03-08T00:32:16.642Z,6.90
2019-03-08T00:34:47.150Z,6.80
2019-03-08T00:37:17.222Z,6.80
2019-03-08T00:39:47.825Z,6.70
2019-03-08T00:42:17.691Z,6.70
2019-03-08T00:44:47.406Z,6.80
2019-03-08T00:47:17.150Z,6.80
2019-03-08T00:49:47.068Z,6.80
2019-03-08T00:52:17.067Z,6.80
2019-03-08T00:54:47.382Z,6.80
2019-03-08T00:57:17.432Z,6.80
2019-03-08T00:59:47.479Z,6.80
2019-03-08T01:02:18.025Z,6.90
2019-03-08T01:04:48.383Z,6.90
2019-03-08T01:07:18.234Z,6.90
2019-03-08T01:09:48.292Z,6.90
2019-03-08T01:12:18.342Z,7.00
2019-03-08T01:14:48.153Z,6.90
2019-03-08T01:17:18.490Z,6.90
2019-03-08T01:20:08.022Z,7.00
2019-03-08T01:22:38.116Z,7.00
2019-03-08T01:25:08.641Z,7.00
2019-03-08T01:27:39.083Z,7.10
2019-03-08T01:30:11.435Z,7.10
2019-03-08T01:32:42.009Z,7.10
2019-03-08T01:35:12.142Z,7.00
2019-03-08T01:37:42.722Z,7.10
2019-03-08T01:40:13.379Z,7.20
2019-03-08T01:42:43.938Z,7.20
2019-03-08T01:45:14.334Z,7.20
2019-03-08T01:47:44.651Z,7.20
2019-03-08T01:50:15.243Z,7.20
2019-03-08T01:52:45.712Z,7.30
2019-03-08T01:55:16.109Z,7.30
2019-03-08T01:57:46.439Z,7.30
2019-03-08T02:00:17.558Z,7.40
2019-03-08T02:02:48.074Z,7.40
2019-03-08T02:05:18.601Z,7.50
2019-03-08T02:07:48.867Z,7.50
2019-03-08T02:10:18.959Z,7.50
2019-03-08T02:12:49.253Z,7.50
2019-03-08T02:15:19.765Z,7.50
2019-03-08T02:17:50.808Z,7.50
2019-03-08T02:20:21.318Z,7.50
2019-03-08T02:22:51.721Z,7.50
2019-03-08T02:25:22.159Z,7.60
2019-03-08T02:27:52.220Z,7.60
2019-03-08T02:30:22.183Z,7.50
2019-03-08T02:32:52.736Z,7.50
2019-03-08T02:35:22.955Z,7.50
2019-03-08T02:37:53.574Z,7.50
2019-03-08T02:40:34.373Z,7.40
2019-03-08T02:43:06.002Z,7.10
2019-03-08T02:45:36.679Z,7.00
2019-03-08T02:48:06.834Z,6.90
2019-03-08T02:50:37.244Z,6.80
2019-03-08T02:53:07.693Z,6.80
2019-03-08T02:55:37.886Z,6.80
2019-03-08T02:58:08.238Z,6.80
2019-03-08T03:00:43.626Z,6.80
2019-03-08T03:03:13.782Z,6.70
2019-03-08T03:05:43.723Z,6.80
2019-03-08T03:08:13.662Z,6.90
2019-03-08T03:10:43.508Z,6.90
2019-03-08T03:13:13.382Z,6.90
2019-03-08T03:15:43.298Z,6.80
2019-03-08T03:18:13.208Z,6.90
2019-03-08T03:20:43.079Z,6.90
2019-03-08T03:23:13.184Z,6.80
2019-03-08T03:25:43.090Z,6.80
2019-03-08T03:28:12.907Z,6.80
2019-03-08T03:30:42.828Z,6.80
2019-03-08T03:33:13.031Z,6.70
2019-03-08T03:35:42.962Z,6.70
2019-03-08T03:38:13.281Z,6.60
2019-03-08T03:40:47.714Z,6.60
2019-03-08T03:43:17.805Z,6.60
2019-03-08T03:45:48.535Z,6.60
2019-03-08T03:48:37.470Z,6.60
2019-03-08T03:51:07.816Z,6.70
2019-03-08T03:53:38.791Z,6.70
2019-03-08T03:56:08.986Z,6.70
2019-03-08T03:58:39.354Z,6.80
2019-03-08T04:01:28.579Z,6.80
2019-03-08T04:03:58.765Z,6.80
2019-03-08T04:06:28.588Z,6.90
2019-03-08T04:08:58.669Z,6.90
2019-03-08T04:11:28.509Z,6.90
2019-03-08T04:13:58.658Z,6.90
2019-03-08T04:16:28.989Z,6.90
2019-03-08T04:18:59.772Z,6.90
2019-03-08T04:21:30.224Z,6.90
2019-03-08T04:24:00.594Z,7.00
2019-03-08T04:26:30.935Z,6.90
2019-03-08T04:29:01.131Z,6.90
2019-03-08T04:31:32.031Z,6.80
2019-03-08T04:34:03.982Z,6.80
2019-03-08T04:36:34.204Z,6.80
2019-03-08T04:39:05.306Z,6.80
2019-03-08T04:41:35.840Z,6.80
2019-03-08T04:44:06.628Z,6.80
2019-03-08T04:46:36.904Z,6.70
2019-03-08T04:49:07.365Z,6.70
2019-03-08T04:51:38.074Z,6.60
2019-03-08T04:54:08.517Z,6.70
2019-03-08T04:56:39.269Z,6.60
2019-03-08T04:59:09.082Z,6.50
2019-03-08T05:01:39.191Z,6.60
2019-03-08T05:04:09.694Z,6.60
2019-03-08T05:06:39.791Z,6.60
2019-03-08T05:09:10.251Z,6.60
2019-03-08T05:11:40.903Z,6.60
2019-03-08T05:14:10.976Z,6.90
2019-03-08T05:16:40.870Z,7.00
2019-03-08T05:19:11.099Z,7.20
2019-03-08T05:21:40.986Z,7.10
2019-03-08T05:24:11.803Z,7.00
2019-03-08T05:26:41.611Z,6.90
2019-03-08T05:29:11.515Z,6.90
2019-03-08T05:31:41.641Z,6.80
2019-03-08T05:34:11.504Z,6.80
2019-03-08T05:36:41.580Z,6.90
2019-03-08T05:39:14.217Z,6.90
2019-03-08T05:41:43.963Z,6.90
2019-03-08T05:44:13.841Z,6.90
2019-03-08T05:46:43.555Z,6.90
2019-03-08T05:49:13.446Z,6.90
2019-03-08T05:51:43.618Z,6.90
2019-03-08T05:54:14.227Z,6.90
2019-03-08T05:56:44.316Z,6.90
2019-03-08T05:59:14.232Z,6.90
2019-03-08T06:01:44.055Z,6.90
2019-03-08T06:04:14.178Z,6.90
2019-03-08T06:06:44.338Z,6.90
2019-03-08T06:09:14.179Z,6.90
2019-03-08T06:11:44.577Z,6.90
2019-03-08T06:14:14.678Z,6.90
2019-03-08T06:16:44.790Z,7.00
2019-03-08T06:19:15.167Z,7.00
2019-03-08T06:21:45.274Z,7.00
2019-03-08T06:24:15.120Z,7.00
2019-03-08T06:26:45.326Z,7.10
2019-03-08T06:29:15.510Z,7.10
2019-03-08T06:31:46.146Z,7.10
2019-03-08T06:34:16.598Z,7.10
2019-03-08T06:36:47.291Z,7.10
2019-03-08T06:39:17.744Z,7.20
2019-03-08T06:41:47.618Z,7.20
2019-03-08T06:44:17.500Z,7.20
2019-03-08T06:46:47.350Z,7.30
2019-03-08T06:49:17.178Z,7.30
2019-03-08T06:51:47.812Z,7.30
2019-03-08T06:54:17.622Z,7.30
2019-03-08T06:56:47.565Z,7.30
2019-03-08T06:59:24.010Z,7.40
2019-03-08T07:01:54.578Z,7.40
2019-03-08T07:04:26.382Z,7.40
2019-03-08T07:06:56.280Z,7.50
2019-03-08T07:09:26.278Z,7.60
2019-03-08T07:11:56.114Z,7.60
2019-03-08T07:14:26.298Z,7.60
2019-03-08T07:16:56.194Z,7.70
2019-03-08T07:19:26.694Z,7.60
2019-03-08T07:22:07.847Z,7.60
2019-03-08T07:25:02.815Z,7.60
2019-03-08T07:28:07.241Z,7.60
2019-03-08T07:30:58.032Z,7.60
2019-03-08T07:33:32.019Z,7.70
2019-03-08T07:36:08.814Z,7.70
2019-03-08T07:39:06.703Z,7.70
2019-03-08T07:42:03.128Z,7.70
2019-03-08T07:44:37.445Z,7.60
2019-03-08T07:47:19.060Z,7.60
2019-03-08T07:50:04.421Z,7.50
2019-03-08T07:52:42.929Z,7.60
2019-03-08T07:55:26.160Z,7.60
2019-03-08T07:58:11.869Z,7.60
2019-03-08T08:00:59.962Z,7.60
2019-03-08T08:03:55.055Z,7.60
2019-03-08T08:06:46.426Z,7.60
2019-03-08T08:09:38.116Z,7.60
2019-03-08T08:12:31.113Z,7.60
2019-03-08T08:15:10.742Z,7.60
2019-03-08T08:17:46.739Z,7.60
2019-03-08T08:20:39.930Z,7.60
2019-03-08T08:23:34.661Z,7.70
2019-03-08T08:26:14.777Z,7.70
2019-03-08T08:29:10.398Z,7.80
2019-03-08T08:32:08.499Z,7.80
2019-03-08T08:34:47.920Z,7.80
2019-03-08T08:37:30.966Z,7.90
2019-03-08T08:40:35.212Z,7.90
2019-03-08T08:43:15.642Z,8.00
2019-03-08T08:45:58.073Z,8.20
2019-03-08T08:48:46.014Z,8.20
2019-03-08T08:51:34.731Z,8.20
2019-03-08T08:54:34.462Z,8.30
2019-03-08T08:57:26.804Z,8.20
2019-03-08T09:00:04.076Z,8.40
2019-03-08T09:02:44.139Z,8.30
2019-03-08T09:05:19.643Z,8.20
2019-03-08T09:08:06.716Z,8.40
2019-03-08T09:11:11.072Z,8.50
2019-03-08T09:14:00.263Z,8.50
2019-03-08T09:16:50.421Z,8.70
2019-03-08T09:19:26.898Z,8.90
2019-03-08T09:22:16.319Z,8.90
2019-03-08T09:25:08.706Z,8.60
2019-03-08T09:28:01.199Z,8.90
2019-03-08T09:30:41.238Z,8.60
2019-03-08T09:33:43.998Z,8.70
2019-03-08T09:36:39.022Z,8.90
2019-03-08T09:39:22.301Z,8.80
2019-03-08T09:41:58.066Z,8.80
2019-03-08T09:44:36.827Z,9.10
2019-03-08T09:47:43.830Z,9.30
2019-03-08T09:50:19.392Z,9.40
2019-03-08T09:53:03.012Z,9.30
2019-03-08T09:55:57.993Z,9.30
2019-03-08T09:58:34.985Z,9.30
2019-03-08T10:01:16.613Z,9.40
2019-03-08T10:04:19.522Z,9.40
2019-03-08T10:07:03.419Z,10.20
2019-03-08T10:09:39.054Z,11.40
2019-03-08T10:12:37.263Z,12.20
2019-03-08T10:15:24.951Z,12.40
2019-03-08T10:18:18.132Z,12.30
2019-03-08T10:21:10.230Z,12.60
2019-03-08T10:24:03.008Z,12.40
2019-03-08T10:26:57.192Z,12.50
2019-03-08T10:29:39.163Z,13.40
2019-03-08T10:32:37.425Z,13.50
2019-03-08T10:35:23.566Z,13.00
2019-03-08T10:38:06.348Z,13.40
2019-03-08T10:41:01.014Z,13.20
2019-03-08T10:43:48.410Z,12.70
2019-03-08T10:46:44.336Z,13.50
2019-03-08T10:49:39.723Z,13.90
2019-03-08T10:52:17.967Z,13.00
2019-03-08T10:54:54.941Z,12.80
2019-03-08T10:57:36.166Z,13.30
2019-03-08T11:00:15.757Z,13.00
2019-03-08T11:02:53.547Z,12.90
2019-03-08T11:05:45.346Z,13.10
2019-03-08T11:08:39.972Z,13.60
2019-03-08T11:11:28.401Z,14.20
2019-03-08T11:14:17.327Z,13.40
2019-03-08T11:17:06.488Z,13.30
2019-03-08T11:20:03.609Z,13.10
2019-03-08T11:22:43.370Z,13.40
2019-03-08T11:25:49.489Z,14.50
2019-03-08T11:28:41.495Z,14.00
2019-03-08T11:31:37.131Z,15.10
2019-03-08T11:34:18.393Z,15.60
2019-03-08T11:36:54.205Z,15.00
2019-03-08T11:39:36.435Z,15.20
2019-03-08T11:42:25.602Z,16.00
2019-03-08T11:45:11.468Z,15.10
2019-03-08T11:47:51.635Z,14.80
2019-03-08T11:50:58.846Z,14.60
2019-03-08T11:53:59.885Z,14.40
2019-03-08T11:56:40.320Z,14.40
2019-03-08T11:59:22.630Z,14.10
2019-03-08T12:02:14.503Z,13.90
2019-03-08T12:05:02.395Z,14.60
2019-03-08T12:07:44.335Z,15.10
2019-03-08T12:10:45.500Z,13.70
2019-03-08T12:13:32.618Z,13.70
2019-03-08T12:16:19.028Z,13.50
2019-03-08T12:19:12.221Z,13.70
2019-03-08T12:21:52.576Z,12.90
2019-03-08T12:24:30.474Z,13.00
2019-03-08T12:27:16.435Z,12.90
2019-03-08T12:29:54.135Z,12.70
2019-03-08T12:32:43.744Z,12.70
2019-03-08T12:35:32.943Z,12.60
2019-03-08T12:38:33.573Z,12.80
2019-03-08T12:41:22.055Z,13.50
2019-03-08T12:44:20.581Z,14.30
2019-03-08T12:47:22.382Z,13.80
2019-03-08T12:50:10.452Z,14.80
2019-03-08T12:53:05.867Z,14.60
2019-03-08T12:55:40.471Z,14.00
2019-03-08T12:58:38.247Z,13.60
2019-03-08T13:01:25.837Z,13.50
2019-03-08T13:04:07.157Z,13.60
2019-03-08T13:06:43.942Z,14.10
2019-03-08T13:09:28.413Z,13.90
2019-03-08T13:11:59.069Z,12.80
2019-03-08T13:14:30.031Z,12.60
2019-03-08T13:17:00.457Z,12.20
2019-03-08T13:19:31.158Z,13.00
2019-03-08T13:22:01.526Z,12.70
2019-03-08T13:24:31.699Z,12.80
2019-03-08T13:27:01.991Z,13.30
2019-03-08T13:29:31.854Z,13.30
2019-03-08T13:32:01.988Z,13.50
2019-03-08T13:34:33.119Z,13.30
2019-03-08T13:37:02.983Z,12.20
2019-03-08T13:39:32.784Z,12.70
2019-03-08T13:42:02.988Z,13.00
2019-03-08T13:44:33.589Z,12.60
2019-03-08T13:47:04.615Z,12.30
2019-03-08T13:49:34.718Z,12.30
2019-03-08T13:52:04.813Z,12.40
2019-03-08T13:54:34.849Z,11.80
2019-03-08T13:57:04.986Z,11.60
2019-03-08T13:59:34.889Z,11.20
2019-03-08T14:02:04.815Z,11.40
2019-03-08T14:04:34.723Z,11.40
2019-03-08T14:07:04.636Z,11.40
2019-03-08T14:09:34.662Z,11.40
2019-03-08T14:12:04.585Z,11.70
2019-03-08T14:14:35.371Z,11.80
2019-03-08T14:17:05.295Z,11.80
2019-03-08T14:19:36.471Z,11.80
2019-03-08T14:22:06.391Z,11.70
2019-03-08T14:24:36.237Z,12.00
2019-03-08T14:27:06.422Z,11.80
2019-03-08T14:29:36.419Z,11.80
2019-03-08T14:32:11.823Z,11.80
2019-03-08T14:34:41.811Z,11.80
2019-03-08T14:37:11.764Z,12.10
2019-03-08T14:39:44.242Z,11.90
2019-03-08T14:42:28.961Z,12.00
2019-03-08T14:45:18.209Z,12.20
2019-03-08T14:47:50.835Z,12.10
2019-03-08T14:52:43.760Z,12.10
2019-03-08T14:55:18.939Z,12.20
2019-03-08T14:57:47.179Z,11.90
2019-03-08T15:00:25.387Z,11.90
2019-03-08T15:02:53.658Z,11.80
2019-03-08T15:05:24.044Z,11.70
2019-03-08T15:07:54.333Z,11.90
2019-03-08T15:10:24.209Z,12.00
2019-03-08T15:12:54.145Z,12.30
2019-03-08T15:15:24.071Z,12.30
2019-03-08T15:18:03.283Z,12.50
2019-03-08T15:20:33.411Z,12.50
2019-03-08T15:23:03.554Z,12.50
2019-03-08T15:25:33.800Z,12.40
2019-03-08T15:28:03.659Z,12.20
2019-03-08T15:30:33.567Z,12.10
2019-03-08T15:33:03.808Z,12.20
2019-03-08T15:35:33.737Z,12.30
2019-03-08T15:38:03.625Z,12.40
2019-03-08T15:40:33.646Z,12.40
2019-03-08T15:43:03.626Z,12.30
2019-03-08T15:45:33.671Z,12.20
2019-03-08T15:48:03.520Z,11.80
2019-03-08T15:50:33.703Z,11.80
2019-03-08T15:53:04.167Z,11.90
2019-03-08T15:55:34.282Z,11.90
2019-03-08T15:58:04.312Z,11.90
2019-03-08T16:00:34.535Z,11.80
2019-03-08T16:03:04.806Z,11.60
2019-03-08T16:05:35.454Z,11.30
2019-03-08T16:08:05.635Z,11.30
2019-03-08T16:10:35.457Z,11.20
2019-03-08T16:13:05.600Z,11.10
2019-03-08T16:15:36.140Z,11.20
2019-03-08T16:18:06.399Z,11.30
2019-03-08T16:20:37.349Z,11.40
2019-03-08T16:23:08.512Z,11.50
2019-03-08T16:25:41.040Z,11.60
2019-03-08T16:28:10.853Z,11.60
2019-03-08T16:30:43.747Z,11.60
2019-03-08T16:33:22.532Z,11.60
2019-03-08T16:36:11.887Z,11.50
2019-03-08T16:39:03.278Z,11.40
2019-03-08T16:41:56.322Z,11.30
2019-03-08T16:44:44.937Z,11.30
2019-03-08T16:47:52.013Z,11.20
2019-03-08T16:50:32.609Z,11.20
2019-03-08T16:53:19.652Z,11.10
2019-03-08T16:56:22.129Z,11.00
2019-03-08T16:59:17.168Z,10.80
2019-03-08T17:02:02.630Z,10.70
2019-03-08T17:04:40.862Z,10.60
2019-03-08T17:07:42.196Z,10.50
2019-03-08T17:10:21.354Z,10.50
2019-03-08T17:13:08.424Z,10.40
2019-03-08T17:15:56.265Z,10.30
2019-03-08T17:18:44.206Z,10.30
2019-03-08T17:21:39.395Z,10.30
2019-03-08T17:24:19.115Z,10.20
2019-03-08T17:26:56.014Z,10.20
2019-03-08T17:29:34.165Z,10.10
2019-03-08T17:32:21.773Z,10.10
2019-03-08T17:35:00.998Z,10.10
2019-03-08T17:37:44.054Z,10.00
2019-03-08T17:40:36.397Z,10.00
2019-03-08T17:43:11.938Z,9.90
2019-03-08T17:45:54.234Z,9.90
2019-03-08T17:48:37.820Z,9.90
2019-03-08T17:51:24.599Z,9.80
2019-03-08T17:54:13.526Z,9.80
2019-03-08T17:57:05.659Z,9.70
2019-03-08T17:59:51.700Z,9.60
2019-03-08T18:02:39.841Z,9.60
2019-03-08T18:05:16.554Z,9.50
2019-03-08T18:08:05.667Z,9.40
2019-03-08T18:10:57.309Z,9.40
2019-03-08T18:13:49.036Z,9.40
2019-03-08T18:16:38.155Z,9.40
2019-03-08T18:19:25.917Z,9.40
2019-03-08T18:22:10.185Z,9.40
2019-03-08T18:24:49.194Z,9.40
2019-03-08T18:27:26.900Z,9.40
2019-03-08T18:30:14.750Z,9.40
2019-03-08T18:33:09.763Z,9.30
2019-03-08T18:35:50.954Z,9.30
2019-03-08T18:38:30.667Z,9.40
2019-03-08T18:41:25.919Z,9.40
2019-03-08T18:44:20.770Z,9.40
2019-03-08T18:47:13.297Z,9.40
2019-03-08T18:50:03.035Z,9.40
2019-03-08T18:52:57.990Z,9.30
2019-03-08T18:55:51.150Z,9.30
2019-03-08T18:58:49.310Z,9.40
2019-03-08T19:01:41.848Z,9.40
2019-03-08T19:04:22.782Z,9.30
2019-03-08T19:07:18.029Z,9.30
2019-03-08T19:10:00.353Z,9.30
2019-03-08T19:12:52.832Z,9.40
2019-03-08T19:15:40.957Z,9.50
2019-03-08T19:18:26.163Z,9.50
2019-03-08T19:21:07.946Z,9.50
2019-03-08T19:23:56.254Z,9.50
2019-03-08T19:26:48.199Z,9.50
2019-03-08T19:29:39.907Z,9.50
2019-03-08T19:32:22.818Z,9.50
2019-03-08T19:34:59.974Z,9.40
2019-03-08T19:37:39.365Z,9.40
2019-03-08T19:40:18.575Z,9.40
2019-03-08T19:43:13.701Z,9.40
2019-03-08T19:46:01.728Z,9.40
2019-03-08T19:48:43.229Z,9.40
2019-03-08T19:51:25.100Z,9.50
2019-03-08T19:54:19.322Z,9.50
2019-03-08T19:57:17.036Z,9.50
2019-03-08T20:00:01.862Z,9.50
2019-03-08T20:02:57.254Z,9.50
2019-03-08T20:05:49.497Z,9.50
2019-03-08T20:08:47.999Z,9.60
2019-03-08T20:11:40.088Z,9.60
2019-03-08T20:14:28.111Z,9.60
2019-03-08T20:17:16.197Z,9.60
2019-03-08T20:19:56.582Z,9.60
2019-03-08T20:22:46.365Z,9.60
2019-03-08T20:25:37.374Z,9.60
2019-03-08T20:28:14.107Z,9.60
2019-03-08T20:31:12.379Z,10.10
2019-03-08T20:33:53.982Z,9.90
2019-03-08T20:36:53.310Z,9.80
2019-03-08T20:39:46.021Z,9.70
2019-03-08T20:42:40.768Z,9.70
2019-03-08T20:45:18.277Z,9.70
2019-03-08T20:47:48.549Z,9.60
2019-03-08T20:50:18.447Z,9.60
2019-03-08T20:52:48.795Z,9.60
2019-03-08T20:55:18.668Z,9.60
2019-03-08T20:57:48.855Z,9.60
2019-03-08T21:00:19.586Z,9.60
2019-03-08T21:02:49.734Z,9.60
2019-03-08T21:05:19.607Z,9.60
2019-03-08T21:07:49.526Z,9.50
2019-03-08T21:10:19.350Z,9.50
2019-03-08T21:12:49.462Z,9.50
2019-03-08T21:15:25.286Z,9.50
2019-03-08T21:17:51.462Z,9.50
2019-03-08T21:20:21.803Z,9.60
2019-03-08T21:22:51.536Z,9.50
2019-03-08T21:25:21.365Z,9.50
2019-03-08T21:27:51.157Z,9.50
2019-03-08T21:30:21.211Z,9.50
2019-03-08T21:32:52.066Z,9.50
2019-03-08T21:35:22.671Z,9.50
2019-03-08T21:37:52.528Z,9.50
2019-03-08T21:40:22.517Z,9.50
2019-03-08T21:42:52.693Z,9.50
2019-03-08T21:45:22.818Z,9.50
2019-03-08T21:47:53.720Z,9.40
2019-03-08T21:50:23.832Z,9.40
2019-03-08T21:52:53.997Z,9.30
2019-03-08T21:55:24.143Z,9.30
2019-03-08T21:57:54.330Z,9.30
2019-03-08T22:00:25.061Z,9.30
2019-03-08T22:02:55.542Z,9.30
2019-03-08T22:05:32.228Z,9.30
2019-03-08T22:08:21.769Z,9.30
2019-03-08T22:11:13.430Z,9.30
2019-03-08T22:13:43.318Z,9.30
2019-03-08T22:16:13.160Z,9.30
2019-03-08T22:18:44.111Z,9.20
2019-03-08T22:21:13.918Z,9.20
2019-03-08T22:23:44.278Z,9.20
2019-03-08T22:26:14.378Z,9.30
2019-03-08T22:28:44.994Z,9.30
2019-03-08T22:31:14.842Z,9.30
2019-03-08T22:33:44.678Z,9.30
2019-03-08T22:36:14.570Z,9.20
2019-03-08T22:39:04.118Z,9.20
2019-03-08T22:41:34.050Z,9.20
2019-03-08T22:44:03.910Z,9.20
2019-03-08T22:46:33.782Z,9.20
2019-03-08T22:49:03.610Z,9.20
2019-03-08T22:51:33.518Z,9.20
2019-03-08T22:54:03.348Z,9.20
2019-03-08T22:56:33.345Z,9.20
2019-03-08T22:59:03.175Z,9.20
2019-03-08T23:01:44.487Z,9.20
2019-03-08T23:04:14.337Z,9.10
2019-03-08T23:06:44.210Z,9.20
2019-03-08T23:09:15.387Z,9.10
2019-03-08T23:11:45.313Z,9.10
2019-03-08T23:14:15.431Z,9.10
2019-03-08T23:16:49.020Z,9.10
2019-03-08T23:19:18.834Z,9.10
2019-03-08T23:21:49.296Z,9.00
2019-03-08T23:24:19.169Z,9.10
2019-03-08T23:27:11.347Z,9.10
2019-03-08T23:29:45.980Z,9.10
2019-03-08T23:32:35.348Z,9.10
2019-03-08T23:35:05.773Z,9.10
2019-03-08T23:37:35.670Z,9.20
2019-03-08T23:40:06.050Z,9.20
2019-03-08T23:42:35.870Z,9.10
2019-03-08T23:45:06.270Z,9.20
2019-03-08T23:47:36.178Z,9.10
2019-03-08T23:50:06.530Z,9.20
2019-03-08T23:52:36.287Z,9.20
2019-03-08T23:55:06.335Z,9.20
2019-03-08T23:57:36.250Z,9.20
